sensor_id;sensor_type;location;lat;lon;timestamp;temperature;humidity
17405;DHT22;8820;54.604;18.226;2023-11-19T00:01:28;1.10;99.90
17405;DHT22;8820;54.604;18.226;2023-11-19T00:03:56;1.10;99.90
17405;DHT22;8820;54.604;18.226;2023-11-19T00:06:24;1.10;99.90
17405;DHT22;8820;54.604;18.226;2023-11-19T00:08:53;1.10;99.90
17405;DHT22;8820;54.604;18.226;2023-11-19T00:11:21;1.00;99.90
17405;DHT22;8820;54.604;18.226;2023-11-19T00:13:49;1.10;99.90
17405;DHT22;8820;54.604;18.226;2023-11-19T00:16:18;1.10;99.90
17405;DHT22;8820;54.604;18.226;2023-11-19T00:18:47;1.00;99.90
17405;DHT22;8820;54.604;18.226;2023-11-19T00:21:17;1.00;99.90
17405;DHT22;8820;54.604;18.226;2023-11-19T00:23:45;1.00;99.90
17405;DHT22;8820;54.604;18.226;2023-11-19T00:26:13;0.90;99.90
17405;DHT22;8820;54.604;18.226;2023-11-19T00:28:45;1.00;99.90
17405;DHT22;8820;54.604;18.226;2023-11-19T00:31:15;1.00;99.90
17405;DHT22;8820;54.604;18.226;2023-11-19T00:33:43;1.00;99.90
17405;DHT22;8820;54.604;18.226;2023-11-19T00:36:17;1.00;99.90
17405;DHT22;8820;54.604;18.226;2023-11-19T00:38:45;0.90;99.90
17405;DHT22;8820;54.604;18.226;2023-11-19T00:41:15;0.90;99.90
17405;DHT22;8820;54.604;18.226;2023-11-19T00:43:44;1.00;99.90
17405;DHT22;8820;54.604;18.226;2023-11-19T00:46:12;1.00;99.90
17405;DHT22;8820;54.604;18.226;2023-11-19T00:48:41;1.00;99.90
17405;DHT22;8820;54.604;18.226;2023-11-19T00:51:11;0.90;99.90
17405;DHT22;8820;54.604;18.226;2023-11-19T00:53:41;1.00;99.90
17405;DHT22;8820;54.604;18.226;2023-11-19T00:56:11;1.00;99.90
17405;DHT22;8820;54.604;18.226;2023-11-19T00:58:40;1.00;99.90
17405;DHT22;8820;54.604;18.226;2023-11-19T01:01:09;1.00;99.90
17405;DHT22;8820;54.604;18.226;2023-11-19T01:03:39;1.00;99.90
17405;DHT22;8820;54.604;18.226;2023-11-19T01:06:08;1.00;99.90
17405;DHT22;8820;54.604;18.226;2023-11-19T01:08:36;1.10;99.90
17405;DHT22;8820;54.604;18.226;2023-11-19T01:11:06;1.10;99.90
17405;DHT22;8820;54.604;18.226;2023-11-19T01:13:35;1.10;99.90
17405;DHT22;8820;54.604;18.226;2023-11-19T01:16:04;1.10;99.90
17405;DHT22;8820;54.604;18.226;2023-11-19T01:18:34;1.10;99.90
17405;DHT22;8820;54.604;18.226;2023-11-19T01:21:03;1.20;99.90
17405;DHT22;8820;54.604;18.226;2023-11-19T01:23:32;1.20;99.90
17405;DHT22;8820;54.604;18.226;2023-11-19T01:26:01;1.20;99.90
17405;DHT22;8820;54.604;18.226;2023-11-19T01:28:30;1.10;99.90
17405;DHT22;8820;54.604;18.226;2023-11-19T01:30:59;1.20;99.90
17405;DHT22;8820;54.604;18.226;2023-11-19T01:33:27;1.20;99.90
17405;DHT22;8820;54.604;18.226;2023-11-19T01:35:55;1.20;99.90
17405;DHT22;8820;54.604;18.226;2023-11-19T01:38:25;1.20;99.90
17405;DHT22;8820;54.604;18.226;2023-11-19T01:40:56;1.20;99.90
17405;DHT22;8820;54.604;18.226;2023-11-19T01:43:36;1.20;99.90
17405;DHT22;8820;54.604;18.226;2023-11-19T01:46:05;1.30;99.90
17405;DHT22;8820;54.604;18.226;2023-11-19T01:48:38;1.30;99.90
17405;DHT22;8820;54.604;18.226;2023-11-19T01:51:08;1.30;99.90
17405;DHT22;8820;54.604;18.226;2023-11-19T01:53:38;1.20;99.90
17405;DHT22;8820;54.604;18.226;2023-11-19T01:56:08;1.20;99.90
17405;DHT22;8820;54.604;18.226;2023-11-19T01:58:40;1.20;99.90
17405;DHT22;8820;54.604;18.226;2023-11-19T02:01:09;1.30;99.90
17405;DHT22;8820;54.604;18.226;2023-11-19T02:03:38;1.20;99.90
17405;DHT22;8820;54.604;18.226;2023-11-19T02:06:07;1.30;99.90
17405;DHT22;8820;54.604;18.226;2023-11-19T02:08:38;1.30;99.90
17405;DHT22;8820;54.604;18.226;2023-11-19T02:11:07;1.40;99.90
17405;DHT22;8820;54.604;18.226;2023-11-19T02:13:39;1.30;99.90
17405;DHT22;8820;54.604;18.226;2023-11-19T02:16:08;1.40;99.90
17405;DHT22;8820;54.604;18.226;2023-11-19T02:18:38;1.30;99.90
17405;DHT22;8820;54.604;18.226;2023-11-19T02:21:07;1.40;99.90
17405;DHT22;8820;54.604;18.226;2023-11-19T02:23:37;1.30;99.90
17405;DHT22;8820;54.604;18.226;2023-11-19T02:26:12;1.30;99.90
17405;DHT22;8820;54.604;18.226;2023-11-19T02:28:43;1.20;99.90
17405;DHT22;8820;54.604;18.226;2023-11-19T02:31:12;1.20;99.90
17405;DHT22;8820;54.604;18.226;2023-11-19T02:33:41;1.30;99.90
17405;DHT22;8820;54.604;18.226;2023-11-19T02:36:10;1.30;99.90
17405;DHT22;8820;54.604;18.226;2023-11-19T02:38:38;1.40;99.90
17405;DHT22;8820;54.604;18.226;2023-11-19T02:41:07;1.40;99.90
17405;DHT22;8820;54.604;18.226;2023-11-19T02:43:37;1.50;99.90
17405;DHT22;8820;54.604;18.226;2023-11-19T02:46:07;1.50;99.90
17405;DHT22;8820;54.604;18.226;2023-11-19T02:48:38;1.50;99.90
17405;DHT22;8820;54.604;18.226;2023-11-19T02:51:07;1.50;99.90
17405;DHT22;8820;54.604;18.226;2023-11-19T02:53:37;1.50;99.90
17405;DHT22;8820;54.604;18.226;2023-11-19T02:56:07;1.50;99.90
17405;DHT22;8820;54.604;18.226;2023-11-19T02:58:43;1.50;99.90
17405;DHT22;8820;54.604;18.226;2023-11-19T03:01:21;1.50;99.90
17405;DHT22;8820;54.604;18.226;2023-11-19T03:03:57;1.50;99.90
17405;DHT22;8820;54.604;18.226;2023-11-19T03:06:26;1.60;99.90
17405;DHT22;8820;54.604;18.226;2023-11-19T03:08:55;1.60;99.90
17405;DHT22;8820;54.604;18.226;2023-11-19T03:11:24;1.60;99.90
17405;DHT22;8820;54.604;18.226;2023-11-19T03:13:52;1.70;99.90
17405;DHT22;8820;54.604;18.226;2023-11-19T03:16:22;1.60;99.90
17405;DHT22;8820;54.604;18.226;2023-11-19T03:18:50;1.60;99.90
17405;DHT22;8820;54.604;18.226;2023-11-19T03:21:19;1.60;99.90
17405;DHT22;8820;54.604;18.226;2023-11-19T03:23:47;1.60;99.90
17405;DHT22;8820;54.604;18.226;2023-11-19T03:26:16;1.60;99.90
17405;DHT22;8820;54.604;18.226;2023-11-19T03:28:44;1.60;99.90
17405;DHT22;8820;54.604;18.226;2023-11-19T03:31:13;1.60;99.90
17405;DHT22;8820;54.604;18.226;2023-11-19T03:33:42;1.50;99.90
17405;DHT22;8820;54.604;18.226;2023-11-19T03:36:11;1.50;99.90
17405;DHT22;8820;54.604;18.226;2023-11-19T03:38:39;1.40;99.90
17405;DHT22;8820;54.604;18.226;2023-11-19T03:41:12;1.40;99.90
17405;DHT22;8820;54.604;18.226;2023-11-19T03:43:41;1.40;99.90
17405;DHT22;8820;54.604;18.226;2023-11-19T03:46:17;1.40;99.90
17405;DHT22;8820;54.604;18.226;2023-11-19T03:48:48;1.50;99.90
17405;DHT22;8820;54.604;18.226;2023-11-19T03:51:17;1.50;99.90
17405;DHT22;8820;54.604;18.226;2023-11-19T03:53:45;1.70;99.90
17405;DHT22;8820;54.604;18.226;2023-11-19T03:56:14;1.70;99.90
17405;DHT22;8820;54.604;18.226;2023-11-19T03:58:42;1.70;99.90
17405;DHT22;8820;54.604;18.226;2023-11-19T04:01:12;1.70;99.90
17405;DHT22;8820;54.604;18.226;2023-11-19T04:03:41;1.80;99.90
17405;DHT22;8820;54.604;18.226;2023-11-19T04:06:14;1.80;99.90
17405;DHT22;8820;54.604;18.226;2023-11-19T04:08:42;1.80;99.90
17405;DHT22;8820;54.604;18.226;2023-11-19T04:11:11;1.80;99.90
17405;DHT22;8820;54.604;18.226;2023-11-19T04:13:39;1.80;99.90
17405;DHT22;8820;54.604;18.226;2023-11-19T04:16:08;1.80;99.90
17405;DHT22;8820;54.604;18.226;2023-11-19T04:18:37;1.70;99.90
17405;DHT22;8820;54.604;18.226;2023-11-19T04:21:06;1.80;99.90
17405;DHT22;8820;54.604;18.226;2023-11-19T04:23:36;1.80;99.90
17405;DHT22;8820;54.604;18.226;2023-11-19T04:26:05;1.70;99.90
17405;DHT22;8820;54.604;18.226;2023-11-19T04:28:36;1.60;99.90
17405;DHT22;8820;54.604;18.226;2023-11-19T04:31:05;1.50;99.90
17405;DHT22;8820;54.604;18.226;2023-11-19T04:33:33;1.50;99.90
17405;DHT22;8820;54.604;18.226;2023-11-19T04:36:02;1.40;99.90
17405;DHT22;8820;54.604;18.226;2023-11-19T04:38:30;1.40;99.90
17405;DHT22;8820;54.604;18.226;2023-11-19T04:41:00;1.40;99.90
17405;DHT22;8820;54.604;18.226;2023-11-19T04:43:29;1.40;99.90
17405;DHT22;8820;54.604;18.226;2023-11-19T04:45:58;1.40;99.90
17405;DHT22;8820;54.604;18.226;2023-11-19T04:48:26;1.30;99.90
17405;DHT22;8820;54.604;18.226;2023-11-19T04:51:07;1.30;99.90
17405;DHT22;8820;54.604;18.226;2023-11-19T04:53:36;1.30;99.90
17405;DHT22;8820;54.604;18.226;2023-11-19T04:56:10;1.20;99.90
17405;DHT22;8820;54.604;18.226;2023-11-19T04:58:38;1.20;99.90
17405;DHT22;8820;54.604;18.226;2023-11-19T05:01:13;1.20;99.90
17405;DHT22;8820;54.604;18.226;2023-11-19T05:03:42;1.20;99.90
17405;DHT22;8820;54.604;18.226;2023-11-19T05:06:10;1.20;99.90
17405;DHT22;8820;54.604;18.226;2023-11-19T05:08:38;1.20;99.90
17405;DHT22;8820;54.604;18.226;2023-11-19T05:11:08;1.20;99.90
17405;DHT22;8820;54.604;18.226;2023-11-19T05:13:39;1.20;99.90
17405;DHT22;8820;54.604;18.226;2023-11-19T05:16:07;1.10;99.90
17405;DHT22;8820;54.604;18.226;2023-11-19T05:18:36;1.10;99.90
17405;DHT22;8820;54.604;18.226;2023-11-19T05:21:06;1.10;99.90
17405;DHT22;8820;54.604;18.226;2023-11-19T05:23:34;1.10;99.90
17405;DHT22;8820;54.604;18.226;2023-11-19T05:26:03;1.10;99.90
17405;DHT22;8820;54.604;18.226;2023-11-19T05:28:37;1.00;99.90
17405;DHT22;8820;54.604;18.226;2023-11-19T05:31:06;1.10;99.90
17405;DHT22;8820;54.604;18.226;2023-11-19T05:33:34;1.00;99.90
17405;DHT22;8820;54.604;18.226;2023-11-19T05:36:04;1.00;99.90
17405;DHT22;8820;54.604;18.226;2023-11-19T05:38:32;1.10;99.90
17405;DHT22;8820;54.604;18.226;2023-11-19T05:41:01;1.10;99.90
17405;DHT22;8820;54.604;18.226;2023-11-19T05:43:29;1.10;99.90
17405;DHT22;8820;54.604;18.226;2023-11-19T05:45:59;1.10;99.90
17405;DHT22;8820;54.604;18.226;2023-11-19T05:48:28;1.20;99.90
17405;DHT22;8820;54.604;18.226;2023-11-19T05:50:56;1.10;99.90
17405;DHT22;8820;54.604;18.226;2023-11-19T05:53:25;1.10;99.90
17405;DHT22;8820;54.604;18.226;2023-11-19T05:55:53;1.20;99.90
17405;DHT22;8820;54.604;18.226;2023-11-19T05:58:24;1.10;99.90
17405;DHT22;8820;54.604;18.226;2023-11-19T06:00:55;1.20;99.90
17405;DHT22;8820;54.604;18.226;2023-11-19T06:03:25;1.20;99.90
17405;DHT22;8820;54.604;18.226;2023-11-19T06:05:53;1.30;99.90
17405;DHT22;8820;54.604;18.226;2023-11-19T06:08:22;1.20;99.90
17405;DHT22;8820;54.604;18.226;2023-11-19T06:10:50;1.30;99.90
17405;DHT22;8820;54.604;18.226;2023-11-19T06:13:19;1.20;99.90
17405;DHT22;8820;54.604;18.226;2023-11-19T06:15:49;1.20;99.90
17405;DHT22;8820;54.604;18.226;2023-11-19T06:18:18;1.10;99.90
17405;DHT22;8820;54.604;18.226;2023-11-19T06:20:49;1.10;99.90
17405;DHT22;8820;54.604;18.226;2023-11-19T06:23:17;1.00;99.90
17405;DHT22;8820;54.604;18.226;2023-11-19T06:25:46;1.00;99.90
17405;DHT22;8820;54.604;18.226;2023-11-19T06:28:14;1.00;99.90
17405;DHT22;8820;54.604;18.226;2023-11-19T06:30:43;1.00;99.90
17405;DHT22;8820;54.604;18.226;2023-11-19T06:33:14;1.00;99.90
17405;DHT22;8820;54.604;18.226;2023-11-19T06:35:42;1.00;99.90
17405;DHT22;8820;54.604;18.226;2023-11-19T06:38:12;1.10;99.90
17405;DHT22;8820;54.604;18.226;2023-11-19T06:40:40;1.20;99.90
17405;DHT22;8820;54.604;18.226;2023-11-19T06:43:09;1.10;99.90
17405;DHT22;8820;54.604;18.226;2023-11-19T06:45:37;1.00;99.90
17405;DHT22;8820;54.604;18.226;2023-11-19T06:48:06;1.10;99.90
17405;DHT22;8820;54.604;18.226;2023-11-19T06:50:34;1.10;99.90
17405;DHT22;8820;54.604;18.226;2023-11-19T06:53:02;1.20;99.90
17405;DHT22;8820;54.604;18.226;2023-11-19T06:55:33;1.10;99.90
17405;DHT22;8820;54.604;18.226;2023-11-19T06:58:02;1.20;99.90
17405;DHT22;8820;54.604;18.226;2023-11-19T07:00:30;1.20;99.90
17405;DHT22;8820;54.604;18.226;2023-11-19T07:02:59;1.10;99.90
17405;DHT22;8820;54.604;18.226;2023-11-19T07:05:28;1.20;99.90
17405;DHT22;8820;54.604;18.226;2023-11-19T07:07:57;1.30;99.90
17405;DHT22;8820;54.604;18.226;2023-11-19T07:10:25;1.40;99.90
17405;DHT22;8820;54.604;18.226;2023-11-19T07:12:55;1.40;99.90
17405;DHT22;8820;54.604;18.226;2023-11-19T07:15:24;1.50;99.90
17405;DHT22;8820;54.604;18.226;2023-11-19T07:17:53;1.50;99.90
17405;DHT22;8820;54.604;18.226;2023-11-19T07:20:24;1.50;99.90
17405;DHT22;8820;54.604;18.226;2023-11-19T07:22:53;1.70;99.90
17405;DHT22;8820;54.604;18.226;2023-11-19T07:25:24;1.60;99.90
17405;DHT22;8820;54.604;18.226;2023-11-19T07:27:55;1.60;99.90
17405;DHT22;8820;54.604;18.226;2023-11-19T07:30:23;1.50;99.90
17405;DHT22;8820;54.604;18.226;2023-11-19T07:32:51;1.50;99.90
17405;DHT22;8820;54.604;18.226;2023-11-19T07:35:20;1.50;99.90
17405;DHT22;8820;54.604;18.226;2023-11-19T07:37:48;1.60;99.90
17405;DHT22;8820;54.604;18.226;2023-11-19T07:40:17;1.60;99.90
17405;DHT22;8820;54.604;18.226;2023-11-19T07:42:46;1.70;99.90
17405;DHT22;8820;54.604;18.226;2023-11-19T07:45:16;1.70;99.90
17405;DHT22;8820;54.604;18.226;2023-11-19T07:47:44;1.70;99.90
17405;DHT22;8820;54.604;18.226;2023-11-19T07:50:13;1.80;99.90
17405;DHT22;8820;54.604;18.226;2023-11-19T07:52:43;1.70;99.90
17405;DHT22;8820;54.604;18.226;2023-11-19T07:55:12;1.80;99.90
17405;DHT22;8820;54.604;18.226;2023-11-19T07:57:40;1.80;99.90
17405;DHT22;8820;54.604;18.226;2023-11-19T08:00:09;1.80;99.90
17405;DHT22;8820;54.604;18.226;2023-11-19T08:02:40;1.70;99.90
17405;DHT22;8820;54.604;18.226;2023-11-19T08:05:09;1.80;99.90
17405;DHT22;8820;54.604;18.226;2023-11-19T08:07:38;1.80;99.90
17405;DHT22;8820;54.604;18.226;2023-11-19T08:10:07;1.80;99.90
17405;DHT22;8820;54.604;18.226;2023-11-19T08:12:38;1.90;99.90
17405;DHT22;8820;54.604;18.226;2023-11-19T08:15:07;2.10;99.90
17405;DHT22;8820;54.604;18.226;2023-11-19T08:17:36;1.90;99.90
17405;DHT22;8820;54.604;18.226;2023-11-19T08:20:07;2.10;99.90
17405;DHT22;8820;54.604;18.226;2023-11-19T08:22:37;2.20;99.90
17405;DHT22;8820;54.604;18.226;2023-11-19T08:25:06;2.20;99.90
17405;DHT22;8820;54.604;18.226;2023-11-19T08:27:35;2.20;99.90
17405;DHT22;8820;54.604;18.226;2023-11-19T08:30:04;2.30;99.90
17405;DHT22;8820;54.604;18.226;2023-11-19T08:32:34;2.50;99.90
17405;DHT22;8820;54.604;18.226;2023-11-19T08:35:03;2.30;99.90
17405;DHT22;8820;54.604;18.226;2023-11-19T08:37:34;2.30;99.90
17405;DHT22;8820;54.604;18.226;2023-11-19T08:40:04;2.40;99.90
17405;DHT22;8820;54.604;18.226;2023-11-19T08:42:34;2.50;99.90
17405;DHT22;8820;54.604;18.226;2023-11-19T08:45:04;2.60;99.90
17405;DHT22;8820;54.604;18.226;2023-11-19T08:47:32;2.70;99.90
17405;DHT22;8820;54.604;18.226;2023-11-19T08:50:01;2.90;99.90
17405;DHT22;8820;54.604;18.226;2023-11-19T08:52:31;2.60;99.90
17405;DHT22;8820;54.604;18.226;2023-11-19T08:55:02;2.70;99.90
17405;DHT22;8820;54.604;18.226;2023-11-19T08:57:32;2.70;99.90
17405;DHT22;8820;54.604;18.226;2023-11-19T09:00:00;2.80;99.90
17405;DHT22;8820;54.604;18.226;2023-11-19T09:02:29;2.70;99.90
17405;DHT22;8820;54.604;18.226;2023-11-19T09:04:59;2.80;99.90
17405;DHT22;8820;54.604;18.226;2023-11-19T09:07:28;2.80;99.90
17405;DHT22;8820;54.604;18.226;2023-11-19T09:09:56;2.80;99.90
17405;DHT22;8820;54.604;18.226;2023-11-19T09:12:26;2.70;99.90
17405;DHT22;8820;54.604;18.226;2023-11-19T09:14:54;2.70;99.90
17405;DHT22;8820;54.604;18.226;2023-11-19T09:17:22;2.70;99.90
17405;DHT22;8820;54.604;18.226;2023-11-19T09:19:51;2.60;99.90
17405;DHT22;8820;54.604;18.226;2023-11-19T09:22:19;2.70;99.90
17405;DHT22;8820;54.604;18.226;2023-11-19T09:24:47;2.70;99.90
17405;DHT22;8820;54.604;18.226;2023-11-19T09:27:16;2.50;99.90
17405;DHT22;8820;54.604;18.226;2023-11-19T09:29:45;2.60;99.90
17405;DHT22;8820;54.604;18.226;2023-11-19T09:32:16;2.70;99.90
17405;DHT22;8820;54.604;18.226;2023-11-19T09:34:44;2.90;99.90
17405;DHT22;8820;54.604;18.226;2023-11-19T09:37:13;2.50;99.90
17405;DHT22;8820;54.604;18.226;2023-11-19T09:39:45;2.70;99.90
17405;DHT22;8820;54.604;18.226;2023-11-19T09:42:13;2.80;99.90
17405;DHT22;8820;54.604;18.226;2023-11-19T09:44:43;2.80;99.90
17405;DHT22;8820;54.604;18.226;2023-11-19T09:47:14;2.80;99.90
17405;DHT22;8820;54.604;18.226;2023-11-19T09:49:44;2.50;99.90
17405;DHT22;8820;54.604;18.226;2023-11-19T09:52:12;2.90;99.90
17405;DHT22;8820;54.604;18.226;2023-11-19T09:54:41;3.30;99.90
17405;DHT22;8820;54.604;18.226;2023-11-19T09:57:10;3.20;99.90
17405;DHT22;8820;54.604;18.226;2023-11-19T09:59:40;3.20;99.90
17405;DHT22;8820;54.604;18.226;2023-11-19T10:02:09;3.00;99.90
17405;DHT22;8820;54.604;18.226;2023-11-19T10:04:40;2.90;99.90
17405;DHT22;8820;54.604;18.226;2023-11-19T10:07:10;3.20;99.90
17405;DHT22;8820;54.604;18.226;2023-11-19T10:09:39;3.40;99.90
17405;DHT22;8820;54.604;18.226;2023-11-19T10:12:07;3.60;99.90
17405;DHT22;8820;54.604;18.226;2023-11-19T10:14:38;3.30;99.90
17405;DHT22;8820;54.604;18.226;2023-11-19T10:17:07;3.40;99.90
17405;DHT22;8820;54.604;18.226;2023-11-19T10:19:36;3.50;99.90
17405;DHT22;8820;54.604;18.226;2023-11-19T10:22:06;3.70;99.90
17405;DHT22;8820;54.604;18.226;2023-11-19T10:24:34;3.60;99.90
17405;DHT22;8820;54.604;18.226;2023-11-19T10:27:07;3.40;99.90
17405;DHT22;8820;54.604;18.226;2023-11-19T10:29:36;2.90;99.90
17405;DHT22;8820;54.604;18.226;2023-11-19T10:32:05;3.00;99.90
17405;DHT22;8820;54.604;18.226;2023-11-19T10:34:48;3.10;99.90
17405;DHT22;8820;54.604;18.226;2023-11-19T10:37:29;3.10;99.90
17405;DHT22;8820;54.604;18.226;2023-11-19T10:39:59;2.90;99.90
17405;DHT22;8820;54.604;18.226;2023-11-19T10:42:27;3.00;99.90
17405;DHT22;8820;54.604;18.226;2023-11-19T10:44:55;2.70;99.90
17405;DHT22;8820;54.604;18.226;2023-11-19T10:47:24;2.60;99.90
17405;DHT22;8820;54.604;18.226;2023-11-19T10:49:56;2.70;99.90
17405;DHT22;8820;54.604;18.226;2023-11-19T10:52:25;2.90;99.90
17405;DHT22;8820;54.604;18.226;2023-11-19T10:55:00;3.30;99.90
17405;DHT22;8820;54.604;18.226;2023-11-19T10:57:34;3.30;99.90
17405;DHT22;8820;54.604;18.226;2023-11-19T11:00:06;3.50;99.90
17405;DHT22;8820;54.604;18.226;2023-11-19T11:02:41;3.30;99.90
17405;DHT22;8820;54.604;18.226;2023-11-19T11:05:10;3.10;99.90
17405;DHT22;8820;54.604;18.226;2023-11-19T11:07:40;3.20;99.90
17405;DHT22;8820;54.604;18.226;2023-11-19T11:10:12;3.10;99.90
17405;DHT22;8820;54.604;18.226;2023-11-19T11:12:41;2.90;99.90
17405;DHT22;8820;54.604;18.226;2023-11-19T11:15:11;3.20;99.90
17405;DHT22;8820;54.604;18.226;2023-11-19T11:17:41;3.30;99.90
17405;DHT22;8820;54.604;18.226;2023-11-19T11:20:11;2.90;99.90
17405;DHT22;8820;54.604;18.226;2023-11-19T11:22:49;2.90;99.90
17405;DHT22;8820;54.604;18.226;2023-11-19T11:25:30;3.10;99.90
17405;DHT22;8820;54.604;18.226;2023-11-19T11:28:13;2.80;99.90
17405;DHT22;8820;54.604;18.226;2023-11-19T11:31:00;2.60;99.90
17405;DHT22;8820;54.604;18.226;2023-11-19T11:33:40;2.70;99.90
17405;DHT22;8820;54.604;18.226;2023-11-19T11:36:16;2.50;99.90
17405;DHT22;8820;54.604;18.226;2023-11-19T11:38:48;2.80;99.90
17405;DHT22;8820;54.604;18.226;2023-11-19T11:41:20;2.60;99.90
17405;DHT22;8820;54.604;18.226;2023-11-19T11:43:52;2.70;99.90
17405;DHT22;8820;54.604;18.226;2023-11-19T11:46:53;2.90;99.90
17405;DHT22;8820;54.604;18.226;2023-11-19T11:49:26;3.00;99.90
17405;DHT22;8820;54.604;18.226;2023-11-19T11:52:03;3.00;99.90
17405;DHT22;8820;54.604;18.226;2023-11-19T11:54:32;3.00;99.90
17405;DHT22;8820;54.604;18.226;2023-11-19T11:57:08;3.20;99.90
17405;DHT22;8820;54.604;18.226;2023-11-19T11:59:50;3.20;99.90
17405;DHT22;8820;54.604;18.226;2023-11-19T12:02:20;2.90;99.90
17405;DHT22;8820;54.604;18.226;2023-11-19T12:04:51;2.70;99.90
17405;DHT22;8820;54.604;18.226;2023-11-19T12:07:21;2.60;99.90
17405;DHT22;8820;54.604;18.226;2023-11-19T12:09:52;2.80;99.90
17405;DHT22;8820;54.604;18.226;2023-11-19T12:12:27;3.10;99.90
17405;DHT22;8820;54.604;18.226;2023-11-19T12:15:00;3.30;99.90
17405;DHT22;8820;54.604;18.226;2023-11-19T12:17:37;3.30;99.90
17405;DHT22;8820;54.604;18.226;2023-11-19T12:20:11;3.30;99.90
17405;DHT22;8820;54.604;18.226;2023-11-19T12:22:41;3.20;99.90
17405;DHT22;8820;54.604;18.226;2023-11-19T12:25:11;3.10;99.90
17405;DHT22;8820;54.604;18.226;2023-11-19T12:27:41;3.20;99.90
17405;DHT22;8820;54.604;18.226;2023-11-19T12:30:10;3.40;99.90
17405;DHT22;8820;54.604;18.226;2023-11-19T12:32:40;3.20;99.90
17405;DHT22;8820;54.604;18.226;2023-11-19T12:35:09;3.20;99.90
17405;DHT22;8820;54.604;18.226;2023-11-19T12:37:40;3.00;99.90
17405;DHT22;8820;54.604;18.226;2023-11-19T12:40:16;3.00;99.90
17405;DHT22;8820;54.604;18.226;2023-11-19T12:42:46;3.30;99.90
17405;DHT22;8820;54.604;18.226;2023-11-19T12:45:15;3.10;99.90
17405;DHT22;8820;54.604;18.226;2023-11-19T12:47:44;2.90;99.90
17405;DHT22;8820;54.604;18.226;2023-11-19T12:50:14;3.00;99.90
17405;DHT22;8820;54.604;18.226;2023-11-19T12:52:55;2.90;99.90
17405;DHT22;8820;54.604;18.226;2023-11-19T12:55:27;2.90;99.90
17405;DHT22;8820;54.604;18.226;2023-11-19T12:57:58;3.10;99.90
17405;DHT22;8820;54.604;18.226;2023-11-19T13:00:27;3.20;99.90
17405;DHT22;8820;54.604;18.226;2023-11-19T13:02:57;2.90;99.90
17405;DHT22;8820;54.604;18.226;2023-11-19T13:05:27;3.10;99.90
17405;DHT22;8820;54.604;18.226;2023-11-19T13:08:01;3.20;99.90
17405;DHT22;8820;54.604;18.226;2023-11-19T13:10:30;3.10;99.90
17405;DHT22;8820;54.604;18.226;2023-11-19T13:13:07;3.30;99.90
17405;DHT22;8820;54.604;18.226;2023-11-19T13:15:36;3.50;99.90
17405;DHT22;8820;54.604;18.226;2023-11-19T13:18:05;3.60;99.90
17405;DHT22;8820;54.604;18.226;2023-11-19T13:20:33;3.60;99.90
17405;DHT22;8820;54.604;18.226;2023-11-19T13:23:04;3.60;99.90
17405;DHT22;8820;54.604;18.226;2023-11-19T13:25:33;3.70;99.90
17405;DHT22;8820;54.604;18.226;2023-11-19T13:28:01;3.70;99.90
17405;DHT22;8820;54.604;18.226;2023-11-19T13:30:31;3.60;99.90
17405;DHT22;8820;54.604;18.226;2023-11-19T13:32:59;3.40;99.90
17405;DHT22;8820;54.604;18.226;2023-11-19T13:35:28;3.50;99.90
17405;DHT22;8820;54.604;18.226;2023-11-19T13:37:56;3.50;99.90
17405;DHT22;8820;54.604;18.226;2023-11-19T13:40:25;3.50;99.90
17405;DHT22;8820;54.604;18.226;2023-11-19T13:42:53;3.30;99.90
17405;DHT22;8820;54.604;18.226;2023-11-19T13:45:22;3.40;99.90
17405;DHT22;8820;54.604;18.226;2023-11-19T13:47:51;3.20;99.90
17405;DHT22;8820;54.604;18.226;2023-11-19T13:50:20;3.30;99.90
17405;DHT22;8820;54.604;18.226;2023-11-19T13:52:49;3.30;99.90
17405;DHT22;8820;54.604;18.226;2023-11-19T13:55:18;3.40;99.90
17405;DHT22;8820;54.604;18.226;2023-11-19T13:57:46;3.30;99.90
17405;DHT22;8820;54.604;18.226;2023-11-19T14:00:16;3.40;99.90
17405;DHT22;8820;54.604;18.226;2023-11-19T14:02:46;3.50;99.90
17405;DHT22;8820;54.604;18.226;2023-11-19T14:05:17;3.40;99.90
17405;DHT22;8820;54.604;18.226;2023-11-19T14:08:03;3.30;99.90
17405;DHT22;8820;54.604;18.226;2023-11-19T14:10:43;3.20;99.90
17405;DHT22;8820;54.604;18.226;2023-11-19T14:13:12;3.20;99.90
17405;DHT22;8820;54.604;18.226;2023-11-19T14:15:42;3.30;99.90
17405;DHT22;8820;54.604;18.226;2023-11-19T14:18:12;3.40;99.90
17405;DHT22;8820;54.604;18.226;2023-11-19T14:20:42;3.10;99.90
17405;DHT22;8820;54.604;18.226;2023-11-19T14:23:11;2.90;99.90
17405;DHT22;8820;54.604;18.226;2023-11-19T14:25:39;3.00;99.90
17405;DHT22;8820;54.604;18.226;2023-11-19T14:28:08;3.10;99.90
17405;DHT22;8820;54.604;18.226;2023-11-19T14:30:36;3.10;99.90
17405;DHT22;8820;54.604;18.226;2023-11-19T14:33:05;2.70;99.90
17405;DHT22;8820;54.604;18.226;2023-11-19T14:35:34;2.80;99.90
17405;DHT22;8820;54.604;18.226;2023-11-19T14:38:04;2.90;99.90
17405;DHT22;8820;54.604;18.226;2023-11-19T14:40:34;2.90;99.90
17405;DHT22;8820;54.604;18.226;2023-11-19T14:43:05;3.00;99.90
17405;DHT22;8820;54.604;18.226;2023-11-19T14:45:33;3.10;99.90
17405;DHT22;8820;54.604;18.226;2023-11-19T14:48:05;3.20;99.90
17405;DHT22;8820;54.604;18.226;2023-11-19T14:50:33;3.30;99.90
17405;DHT22;8820;54.604;18.226;2023-11-19T14:53:03;3.20;99.90
17405;DHT22;8820;54.604;18.226;2023-11-19T14:55:32;3.20;99.90
17405;DHT22;8820;54.604;18.226;2023-11-19T14:58:00;3.30;99.90
17405;DHT22;8820;54.604;18.226;2023-11-19T15:00:34;3.30;99.90
17405;DHT22;8820;54.604;18.226;2023-11-19T15:03:02;3.30;99.90
17405;DHT22;8820;54.604;18.226;2023-11-19T15:05:30;3.20;99.90
17405;DHT22;8820;54.604;18.226;2023-11-19T15:07:59;3.20;99.90
17405;DHT22;8820;54.604;18.226;2023-11-19T15:10:28;3.20;99.90
17405;DHT22;8820;54.604;18.226;2023-11-19T15:12:57;3.20;99.90
17405;DHT22;8820;54.604;18.226;2023-11-19T15:15:25;3.30;99.90
17405;DHT22;8820;54.604;18.226;2023-11-19T15:17:56;3.20;99.90
17405;DHT22;8820;54.604;18.226;2023-11-19T15:20:25;3.30;99.90
17405;DHT22;8820;54.604;18.226;2023-11-19T15:22:57;3.40;99.90
17405;DHT22;8820;54.604;18.226;2023-11-19T15:25:25;3.40;99.90
17405;DHT22;8820;54.604;18.226;2023-11-19T15:27:55;3.30;99.90
17405;DHT22;8820;54.604;18.226;2023-11-19T15:30:24;3.30;99.90
17405;DHT22;8820;54.604;18.226;2023-11-19T15:32:53;3.30;99.90
17405;DHT22;8820;54.604;18.226;2023-11-19T15:35:22;3.20;99.90
17405;DHT22;8820;54.604;18.226;2023-11-19T15:37:50;2.90;99.90
17405;DHT22;8820;54.604;18.226;2023-11-19T15:40:19;2.90;99.90
17405;DHT22;8820;54.604;18.226;2023-11-19T15:42:47;3.00;99.90
17405;DHT22;8820;54.604;18.226;2023-11-19T15:45:17;3.10;99.90
17405;DHT22;8820;54.604;18.226;2023-11-19T15:47:45;3.10;99.90
17405;DHT22;8820;54.604;18.226;2023-11-19T15:50:14;3.10;99.90
17405;DHT22;8820;54.604;18.226;2023-11-19T15:52:42;3.00;99.90
17405;DHT22;8820;54.604;18.226;2023-11-19T15:55:12;2.90;99.90
17405;DHT22;8820;54.604;18.226;2023-11-19T15:57:40;2.80;99.90
17405;DHT22;8820;54.604;18.226;2023-11-19T16:00:09;2.80;99.90
17405;DHT22;8820;54.604;18.226;2023-11-19T16:02:39;3.00;99.90